createdAt,value
2017-10-18T00:00:17.863Z,97.50
2017-10-18T00:02:46.271Z,98.10
2017-10-18T00:05:15.413Z,98.00
2017-10-18T00:07:43.791Z,98.00
2017-10-18T00:10:12.202Z,97.30
2017-10-18T00:12:40.592Z,97.00
2017-10-18T00:15:09.774Z,96.50
2017-10-18T00:17:38.154Z,96.50
2017-10-18T00:20:06.546Z,96.50
2017-10-18T00:22:35.751Z,96.70
2017-10-18T00:25:04.906Z,96.70
2017-10-18T00:27:33.420Z,96.70
2017-10-18T00:30:02.563Z,96.80
2017-10-18T00:32:30.939Z,96.80
2017-10-18T00:34:59.341Z,97.40
2017-10-18T00:37:27.727Z,97.90
2017-10-18T00:39:56.385Z,98.20
2017-10-18T00:42:24.771Z,98.00
2017-10-18T00:44:53.144Z,98.00
2017-10-18T00:47:21.552Z,98.00
2017-10-18T00:49:49.922Z,97.40
2017-10-18T00:52:18.412Z,97.40
2017-10-18T00:54:46.798Z,97.90
2017-10-18T00:57:15.192Z,98.70
2017-10-18T00:59:44.354Z,99.70
2017-10-18T01:02:12.737Z,99.70
2017-10-18T01:04:41.399Z,99.90
2017-10-18T01:07:09.765Z,99.90
2017-10-18T01:09:38.143Z,99.90
2017-10-18T01:12:06.536Z,99.60
2017-10-18T01:14:34.910Z,99.10
2017-10-18T01:17:03.323Z,97.60
2017-10-18T01:19:31.696Z,97.50
2017-10-18T01:22:00.139Z,98.40
2017-10-18T01:24:28.501Z,99.00
2017-10-18T01:26:56.885Z,99.00
2017-10-18T01:29:25.288Z,97.90
2017-10-18T01:31:53.663Z,97.70
2017-10-18T01:34:22.251Z,97.90
2017-10-18T01:36:50.629Z,99.10
2017-10-18T01:39:19.008Z,99.40
2017-10-18T01:41:47.409Z,99.50
2017-10-18T01:44:15.799Z,99.50
2017-10-18T01:46:44.448Z,99.50
2017-10-18T01:49:12.828Z,99.40
2017-10-18T01:51:41.241Z,99.90
2017-10-18T01:54:10.392Z,99.90
2017-10-18T01:56:38.759Z,99.90
2017-10-18T01:59:07.170Z,99.80
2017-10-18T02:01:35.542Z,99.70
2017-10-18T02:04:03.919Z,99.60
2017-10-18T02:06:32.309Z,99.60
2017-10-18T02:09:00.678Z,99.30
2017-10-18T02:11:29.260Z,99.40
2017-10-18T02:13:57.627Z,99.60
2017-10-18T02:16:25.994Z,99.50
2017-10-18T02:18:54.397Z,99.90
2017-10-18T02:21:22.767Z,99.90
2017-10-18T02:23:51.217Z,99.90
2017-10-18T02:26:19.606Z,99.90
2017-10-18T02:28:48.619Z,99.90
2017-10-18T02:31:17.049Z,99.90
2017-10-18T02:33:46.209Z,99.90
2017-10-18T02:36:14.618Z,99.90
2017-10-18T02:38:43.755Z,99.90
2017-10-18T02:41:12.121Z,99.90
2017-10-18T02:43:40.513Z,99.90
2017-10-18T02:46:08.884Z,99.90
2017-10-18T02:48:37.305Z,99.90
2017-10-18T02:51:05.684Z,99.90
2017-10-18T02:53:34.065Z,99.90
2017-10-18T02:56:02.463Z,99.90
2017-10-18T02:58:31.607Z,99.90
2017-10-18T03:01:00.195Z,99.90
2017-10-18T03:03:28.561Z,99.90
2017-10-18T03:05:56.935Z,99.90
2017-10-18T03:08:25.325Z,99.90
2017-10-18T03:10:53.703Z,99.90
2017-10-18T03:13:22.286Z,99.90
2017-10-18T03:15:50.654Z,99.90
2017-10-18T03:18:19.024Z,99.90
2017-10-18T03:20:47.417Z,99.70
2017-10-18T03:23:15.837Z,98.80
2017-10-18T03:25:44.403Z,98.20
2017-10-18T03:28:12.790Z,98.30
2017-10-18T03:30:41.157Z,97.60
2017-10-18T03:33:09.579Z,97.80
2017-10-18T03:35:38.746Z,98.10
2017-10-18T03:38:07.408Z,98.00
2017-10-18T03:40:35.790Z,97.90
2017-10-18T03:43:04.161Z,98.00
2017-10-18T03:45:32.569Z,97.90
2017-10-18T03:48:00.940Z,98.00
2017-10-18T03:50:29.506Z,98.20
2017-10-18T03:52:57.885Z,98.30
2017-10-18T03:55:26.248Z,98.80
2017-10-18T03:57:54.643Z,98.80
2017-10-18T04:00:23.081Z,98.70
2017-10-18T04:02:52.515Z,98.80
2017-10-18T04:05:21.426Z,98.80
2017-10-18T04:07:49.801Z,98.70
2017-10-18T04:10:18.190Z,99.20
2017-10-18T04:12:46.559Z,99.30
2017-10-18T04:15:14.994Z,99.10
2017-10-18T04:17:44.129Z,98.90
2017-10-18T04:20:12.511Z,98.90
2017-10-18T04:22:40.914Z,99.30
2017-10-18T04:25:10.044Z,99.50
2017-10-18T04:27:39.243Z,99.90
2017-10-18T04:30:07.618Z,99.90
2017-10-18T04:32:36.763Z,99.90
2017-10-18T04:35:05.244Z,99.90
2017-10-18T04:37:33.649Z,99.90
2017-10-18T04:40:02.823Z,99.90
2017-10-18T04:42:31.203Z,99.90
2017-10-18T04:44:59.643Z,99.90
2017-10-18T04:47:28.011Z,99.90
2017-10-18T04:49:56.383Z,99.90
2017-10-18T04:52:25.547Z,99.90
2017-10-18T04:54:53.920Z,99.90
2017-10-18T04:57:22.469Z,99.30
2017-10-18T04:59:50.841Z,98.70
2017-10-18T05:02:19.207Z,98.50
2017-10-18T05:04:47.607Z,98.70
2017-10-18T05:07:15.991Z,98.80
2017-10-18T05:09:44.782Z,98.90
2017-10-18T05:12:13.160Z,99.00
2017-10-18T05:14:41.537Z,98.80
2017-10-18T05:17:09.947Z,99.10
2017-10-18T05:19:38.322Z,99.90
2017-10-18T05:22:08.254Z,99.50
2017-10-18T05:24:36.615Z,99.50
2017-10-18T05:27:05.066Z,98.90
2017-10-18T05:29:33.434Z,99.00
2017-10-18T05:32:01.805Z,98.80
2017-10-18T05:34:30.194Z,99.20
2017-10-18T05:36:58.574Z,99.00
2017-10-18T05:39:28.632Z,98.80
2017-10-18T05:41:57.000Z,98.80
2017-10-18T05:44:25.374Z,98.60
2017-10-18T05:46:53.773Z,98.60
2017-10-18T05:49:22.139Z,98.80
2017-10-18T05:51:51.307Z,98.60
2017-10-18T05:54:19.683Z,98.50
2017-10-18T05:56:48.119Z,98.60
2017-10-18T05:59:17.286Z,98.60
2017-10-18T06:01:45.658Z,98.50
2017-10-18T06:04:14.147Z,98.30
2017-10-18T06:06:42.527Z,98.30
2017-10-18T06:09:10.987Z,98.00
2017-10-18T06:11:39.384Z,97.60
2017-10-18T06:14:07.751Z,97.60
2017-10-18T06:16:36.159Z,97.30
2017-10-18T06:19:04.553Z,97.50
2017-10-18T06:21:33.693Z,97.10
2017-10-18T06:24:02.098Z,97.10
2017-10-18T06:26:31.261Z,97.60
2017-10-18T06:28:59.983Z,97.60
2017-10-18T06:31:28.371Z,97.10
2017-10-18T06:33:56.738Z,96.10
2017-10-18T06:36:25.152Z,95.30
2017-10-18T06:38:53.535Z,94.70
2017-10-18T06:41:21.939Z,94.40
2017-10-18T06:43:50.312Z,94.00
2017-10-18T06:46:18.692Z,93.60
2017-10-18T06:48:47.102Z,92.80
2017-10-18T06:51:15.475Z,91.70
2017-10-18T06:53:44.395Z,91.10
2017-10-18T06:56:12.768Z,90.50
2017-10-18T06:58:41.934Z,88.90
2017-10-18T07:01:10.362Z,88.90
2017-10-18T07:03:39.499Z,85.90
2017-10-18T07:06:07.928Z,85.90
2017-10-18T07:08:36.301Z,86.50
2017-10-18T07:11:05.470Z,90.20
2017-10-18T07:13:33.879Z,90.10
2017-10-18T07:16:03.022Z,90.40
2017-10-18T07:18:31.610Z,90.30
2017-10-18T07:20:59.988Z,87.80
2017-10-18T07:23:28.368Z,83.90
2017-10-18T07:25:56.776Z,80.80
2017-10-18T07:28:25.311Z,81.10
2017-10-18T07:30:53.916Z,81.70
2017-10-18T07:33:22.298Z,83.00
2017-10-18T07:35:50.710Z,82.80
2017-10-18T07:38:19.978Z,85.40
2017-10-18T07:40:48.360Z,85.30
2017-10-18T07:43:16.810Z,84.50
2017-10-18T07:45:45.654Z,84.50
2017-10-18T07:48:14.028Z,84.90
2017-10-18T07:50:42.435Z,84.70
2017-10-18T07:53:11.580Z,85.10
2017-10-18T07:55:40.160Z,85.00
2017-10-18T07:58:08.560Z,86.00
2017-10-18T08:00:36.949Z,85.90
2017-10-18T08:03:06.141Z,85.70
2017-10-18T08:05:34.560Z,84.80
2017-10-18T08:08:03.227Z,83.00
2017-10-18T08:10:32.391Z,80.80
2017-10-18T08:13:00.779Z,80.80
2017-10-18T08:15:29.344Z,78.80
2017-10-18T08:17:57.727Z,76.60
2017-10-18T08:20:26.405Z,75.30
2017-10-18T08:22:54.821Z,74.40
2017-10-18T08:25:23.983Z,74.00
2017-10-18T08:27:52.386Z,73.90
2017-10-18T08:30:20.768Z,73.10
2017-10-18T08:32:49.227Z,74.60
2017-10-18T08:35:17.616Z,72.40
2017-10-18T08:37:46.004Z,70.10
2017-10-18T08:40:14.436Z,68.00
2017-10-18T08:42:42.834Z,64.90
2017-10-18T08:45:11.576Z,63.40
2017-10-18T08:47:40.721Z,59.30
2017-10-18T08:50:09.134Z,59.20
2017-10-18T08:52:38.319Z,58.30
2017-10-18T08:55:06.707Z,58.00
2017-10-18T08:57:35.349Z,55.70
2017-10-18T09:00:04.192Z,54.40
2017-10-18T09:02:32.737Z,52.50
2017-10-18T09:05:01.165Z,51.20
2017-10-18T09:07:30.349Z,47.60
2017-10-18T09:09:59.719Z,47.30
2017-10-18T09:12:28.148Z,47.20
2017-10-18T09:14:58.632Z,45.90
2017-10-18T09:17:28.241Z,46.00
2017-10-18T09:19:56.794Z,46.00
2017-10-18T09:22:25.895Z,47.00
2017-10-18T09:24:54.313Z,48.20
2017-10-18T09:27:23.463Z,47.10
2017-10-18T09:29:51.867Z,47.70
2017-10-18T09:32:20.253Z,47.80
2017-10-18T09:34:48.913Z,46.80
2017-10-18T09:37:17.293Z,44.80
2017-10-18T09:39:45.684Z,43.70
2017-10-18T09:42:14.098Z,42.70
2017-10-18T09:44:43.250Z,41.50
2017-10-18T09:47:11.731Z,41.40
2017-10-18T09:49:40.104Z,41.50
2017-10-18T09:52:08.488Z,40.90
2017-10-18T09:54:36.905Z,41.90
2017-10-18T09:57:06.080Z,41.20
2017-10-18T09:59:34.745Z,41.20
2017-10-18T10:02:03.125Z,40.30
2017-10-18T10:04:31.535Z,40.80
2017-10-18T10:06:59.948Z,41.00
2017-10-18T10:09:28.339Z,39.80
2017-10-18T10:11:56.943Z,38.70
2017-10-18T10:14:25.324Z,38.90
2017-10-18T10:16:53.705Z,38.40
2017-10-18T10:19:22.112Z,38.00
2017-10-18T10:21:50.484Z,38.70
2017-10-18T10:24:19.138Z,39.10
2017-10-18T10:26:47.519Z,38.90
2017-10-18T10:29:15.897Z,38.80
2017-10-18T10:31:44.307Z,38.80
2017-10-18T10:34:12.688Z,38.70
2017-10-18T10:36:41.239Z,38.00
2017-10-18T10:39:09.625Z,38.40
2017-10-18T10:41:38.004Z,38.90
2017-10-18T10:44:06.415Z,38.00
2017-10-18T10:46:34.790Z,37.10
2017-10-18T10:49:03.924Z,37.50
2017-10-18T10:51:32.308Z,38.70
2017-10-18T10:54:00.690Z,38.20
2017-10-18T10:56:29.091Z,38.70
2017-10-18T10:58:57.468Z,40.00
2017-10-18T11:01:25.904Z,39.30
2017-10-18T11:03:54.286Z,39.00
2017-10-18T11:06:22.674Z,39.10
2017-10-18T11:08:51.077Z,38.50
2017-10-18T11:11:19.465Z,36.40
2017-10-18T11:13:48.126Z,36.50
2017-10-18T11:16:16.513Z,37.00
2017-10-18T11:18:44.903Z,37.00
2017-10-18T11:21:13.316Z,36.20
2017-10-18T11:23:41.705Z,36.80
2017-10-18T11:26:11.108Z,36.80
2017-10-18T11:28:40.267Z,37.70
2017-10-18T11:31:08.644Z,37.60
2017-10-18T11:33:37.057Z,37.80
2017-10-18T11:36:06.211Z,38.00
2017-10-18T11:38:34.788Z,38.00
2017-10-18T11:41:03.165Z,37.90
2017-10-18T11:43:31.540Z,38.00
2017-10-18T11:45:59.939Z,37.60
2017-10-18T11:48:28.310Z,37.90
2017-10-18T11:50:56.991Z,38.80
2017-10-18T11:53:25.364Z,38.00
2017-10-18T11:55:53.727Z,38.30
2017-10-18T11:58:22.145Z,38.80
2017-10-18T12:00:50.528Z,38.40
2017-10-18T12:03:19.189Z,38.40
2017-10-18T12:05:47.696Z,38.20
2017-10-18T12:08:16.075Z,38.70
2017-10-18T12:10:44.480Z,38.60
2017-10-18T12:13:13.623Z,38.90
2017-10-18T12:15:42.309Z,38.80
2017-10-18T12:18:10.685Z,38.60
2017-10-18T12:20:39.079Z,39.00
2017-10-18T12:23:07.498Z,38.80
2017-10-18T12:25:36.641Z,41.00
2017-10-18T12:28:05.328Z,40.90
2017-10-18T12:30:33.714Z,41.30
2017-10-18T12:33:02.148Z,41.50
2017-10-18T12:35:30.559Z,41.20
2017-10-18T12:37:58.943Z,41.60
2017-10-18T12:40:27.943Z,41.60
2017-10-18T12:42:56.371Z,41.60
2017-10-18T12:45:25.006Z,40.70
2017-10-18T12:47:54.866Z,41.70
2017-10-18T12:50:25.566Z,41.20
2017-10-18T12:52:54.851Z,41.10
2017-10-18T12:55:23.474Z,41.00
2017-10-18T12:57:53.042Z,40.60
2017-10-18T13:00:21.515Z,40.60
2017-10-18T13:02:49.938Z,41.20
2017-10-18T13:05:19.604Z,40.10
2017-10-18T13:07:48.044Z,40.10
2017-10-18T13:10:16.572Z,39.70
2017-10-18T13:12:45.031Z,38.30
2017-10-18T13:15:13.489Z,39.70
2017-10-18T13:17:42.411Z,40.00
2017-10-18T13:20:10.967Z,40.70
2017-10-18T13:22:39.399Z,42.90
2017-10-18T13:25:07.855Z,45.40
2017-10-18T13:27:36.304Z,46.00
2017-10-18T13:30:05.171Z,46.30
2017-10-18T13:32:34.643Z,46.00
2017-10-18T13:35:03.113Z,46.00
2017-10-18T13:37:31.593Z,46.20
2017-10-18T13:40:00.218Z,47.80
2017-10-18T13:42:28.899Z,47.90
2017-10-18T13:44:58.851Z,48.70
2017-10-18T13:47:28.803Z,48.60
2017-10-18T13:49:57.382Z,49.00
2017-10-18T13:52:25.856Z,49.40
2017-10-18T13:54:55.260Z,49.10
2017-10-18T13:57:23.640Z,50.70
2017-10-18T13:59:52.019Z,50.70
2017-10-18T14:02:20.470Z,52.00
2017-10-18T14:04:49.018Z,53.30
2017-10-18T14:07:19.121Z,55.50
2017-10-18T14:09:47.550Z,55.40
2017-10-18T14:12:15.936Z,56.50
2017-10-18T14:14:44.468Z,57.90
2017-10-18T14:17:13.171Z,57.00
2017-10-18T14:19:41.804Z,57.90
2017-10-18T14:22:10.195Z,56.50
2017-10-18T14:24:38.626Z,57.10
2017-10-18T14:27:07.756Z,58.00
2017-10-18T14:29:36.229Z,57.80
2017-10-18T14:32:05.067Z,57.50
2017-10-18T14:34:34.541Z,58.70
2017-10-18T14:37:02.940Z,58.70
2017-10-18T14:39:31.385Z,58.70
2017-10-18T14:42:00.110Z,59.20
2017-10-18T14:44:29.483Z,60.10
2017-10-18T14:46:57.872Z,60.10
2017-10-18T14:49:26.267Z,60.00
2017-10-18T14:51:54.670Z,61.60
2017-10-18T14:54:23.819Z,62.50
2017-10-18T14:56:52.203Z,62.50
2017-10-18T14:59:20.608Z,62.10
2017-10-18T15:01:49.002Z,63.00
2017-10-18T15:04:18.179Z,62.70
2017-10-18T15:06:46.611Z,62.70
2017-10-18T15:09:14.994Z,62.60
2017-10-18T15:11:43.419Z,62.00
2017-10-18T15:14:11.799Z,61.90
2017-10-18T15:16:41.003Z,63.10
2017-10-18T15:19:10.152Z,64.10
2017-10-18T15:21:38.553Z,64.10
2017-10-18T15:24:06.982Z,64.60
2017-10-18T15:26:35.360Z,65.00
2017-10-18T15:29:03.798Z,65.50
2017-10-18T15:31:32.196Z,65.60
2017-10-18T15:34:01.356Z,65.00
2017-10-18T15:36:29.834Z,65.00
2017-10-18T15:38:58.270Z,65.10
2017-10-18T15:41:26.756Z,64.60
2017-10-18T15:43:55.158Z,66.10
2017-10-18T15:46:23.556Z,65.80
2017-10-18T15:48:51.966Z,66.20
2017-10-18T15:51:20.353Z,67.10
2017-10-18T15:53:49.655Z,68.10
2017-10-18T15:56:18.804Z,68.80
2017-10-18T15:58:47.185Z,68.70
2017-10-18T16:01:15.591Z,69.60
2017-10-18T16:03:44.808Z,71.80
2017-10-18T16:06:14.013Z,72.60
2017-10-18T16:08:42.407Z,72.60
2017-10-18T16:11:10.790Z,74.00
2017-10-18T16:13:39.194Z,74.60
2017-10-18T16:16:07.577Z,75.20
2017-10-18T16:18:36.435Z,76.10
2017-10-18T16:21:04.832Z,77.50
2017-10-18T16:23:33.225Z,78.90
2017-10-18T16:26:01.800Z,80.20
2017-10-18T16:28:30.208Z,81.10
2017-10-18T16:30:59.014Z,82.30
2017-10-18T16:33:28.679Z,83.60
2017-10-18T16:35:57.097Z,84.20
2017-10-18T16:38:25.515Z,84.30
2017-10-18T16:40:53.897Z,85.20
2017-10-18T16:43:22.344Z,85.80
2017-10-18T16:45:51.433Z,86.90
2017-10-18T16:48:19.872Z,87.10
2017-10-18T16:50:48.279Z,88.30
2017-10-18T16:53:16.659Z,89.10
2017-10-18T16:55:47.126Z,90.20
2017-10-18T16:58:17.955Z,90.10
2017-10-18T17:00:50.887Z,90.10
2017-10-18T17:03:24.645Z,90.10
2017-10-18T17:05:59.581Z,90.10
2017-10-18T17:08:28.336Z,90.10
2017-10-18T17:10:57.511Z,90.70
2017-10-18T17:13:25.920Z,90.70
2017-10-18T17:15:55.072Z,91.20
2017-10-18T17:18:23.487Z,91.20
2017-10-18T17:20:52.632Z,91.80
2017-10-18T17:23:21.315Z,91.80
2017-10-18T17:25:49.695Z,91.80
2017-10-18T17:28:18.185Z,91.90
2017-10-18T17:30:46.587Z,92.40
2017-10-18T17:33:14.967Z,92.60
2017-10-18T17:35:43.645Z,92.70
2017-10-18T17:38:12.031Z,92.70
2017-10-18T17:40:41.180Z,92.90
2017-10-18T17:43:09.712Z,92.90
2017-10-18T17:45:38.093Z,93.00
2017-10-18T17:48:06.644Z,92.80
2017-10-18T17:50:35.026Z,93.20
2017-10-18T17:53:03.408Z,93.00
2017-10-18T17:55:31.811Z,93.00
2017-10-18T17:58:00.189Z,93.00
2017-10-18T18:00:28.963Z,93.20
2017-10-18T18:02:57.368Z,93.70
2017-10-18T18:05:26.547Z,93.60
2017-10-18T18:07:54.967Z,93.60
2017-10-18T18:10:23.355Z,93.90
2017-10-18T18:12:52.164Z,94.10
2017-10-18T18:15:20.573Z,94.20
2017-10-18T18:17:48.983Z,94.40
2017-10-18T18:20:18.161Z,94.50
2017-10-18T18:22:46.552Z,94.50
2017-10-18T18:25:15.965Z,94.80
2017-10-18T18:27:44.366Z,94.70
2017-10-18T18:30:12.751Z,94.80
2017-10-18T18:32:41.151Z,94.70
2017-10-18T18:35:09.550Z,94.50
2017-10-18T18:37:38.420Z,95.80
2017-10-18T18:40:06.819Z,95.70
2017-10-18T18:42:35.216Z,94.70
2017-10-18T18:45:04.415Z,94.50
2017-10-18T18:47:33.563Z,95.10
2017-10-18T18:50:02.376Z,95.10
2017-10-18T18:52:30.761Z,95.00
2017-10-18T18:54:59.147Z,94.40
2017-10-18T18:57:27.558Z,94.70
2017-10-18T18:59:55.944Z,94.80
2017-10-18T19:02:24.544Z,94.90
2017-10-18T19:04:52.924Z,95.10
2017-10-18T19:07:21.311Z,95.00
2017-10-18T19:09:49.731Z,94.70
2017-10-18T19:12:18.887Z,95.00
2017-10-18T19:14:47.767Z,95.00
2017-10-18T19:17:16.155Z,95.30
2017-10-18T19:19:44.535Z,95.50
2017-10-18T19:22:12.945Z,95.90
2017-10-18T19:24:41.335Z,95.90
2017-10-18T19:27:10.708Z,95.90
2017-10-18T19:29:39.115Z,95.80
2017-10-18T19:32:08.288Z,96.60
2017-10-18T19:34:36.716Z,96.60
2017-10-18T19:37:05.159Z,97.20
2017-10-18T19:39:33.701Z,97.40
2017-10-18T19:42:02.101Z,97.70
2017-10-18T19:44:31.308Z,97.20
2017-10-18T19:46:59.715Z,97.20
2017-10-18T19:49:28.922Z,96.60
2017-10-18T19:51:57.555Z,96.60
2017-10-18T19:54:25.977Z,97.20
2017-10-18T19:56:55.199Z,97.80
2017-10-18T19:59:23.789Z,97.80
2017-10-18T20:01:52.214Z,98.20
2017-10-18T20:04:21.282Z,98.70
2017-10-18T20:06:49.772Z,98.80
2017-10-18T20:09:18.193Z,99.00
2017-10-18T20:11:47.411Z,97.80
2017-10-18T20:14:15.873Z,97.80
2017-10-18T20:16:45.201Z,97.50
2017-10-18T20:19:13.599Z,97.50
2017-10-18T20:21:41.998Z,97.20
2017-10-18T20:24:10.462Z,97.40
2017-10-18T20:26:38.898Z,97.80
2017-10-18T20:29:07.386Z,98.10
2017-10-18T20:31:35.811Z,97.60
2017-10-18T20:34:04.974Z,96.90
2017-10-18T20:36:33.418Z,97.20
2017-10-18T20:39:02.636Z,97.30
2017-10-18T20:41:31.485Z,97.30
2017-10-18T20:43:59.903Z,97.20
2017-10-18T20:46:28.304Z,97.00
2017-10-18T20:48:56.756Z,96.90
2017-10-18T20:51:25.925Z,96.60
2017-10-18T20:53:54.687Z,96.60
2017-10-18T20:56:23.148Z,96.70
2017-10-18T20:58:51.541Z,96.80
2017-10-18T21:01:19.985Z,97.00
2017-10-18T21:03:48.501Z,96.80
2017-10-18T21:06:16.948Z,96.80
2017-10-18T21:08:45.335Z,96.60
2017-10-18T21:11:14.263Z,96.40
2017-10-18T21:13:42.719Z,96.40
2017-10-18T21:16:11.117Z,96.60
2017-10-18T21:18:39.895Z,96.90
2017-10-18T21:21:08.282Z,96.70
2017-10-18T21:23:36.687Z,96.70
2017-10-18T21:26:05.096Z,96.80
2017-10-18T21:28:33.484Z,96.80
2017-10-18T21:31:02.096Z,96.60
2017-10-18T21:33:30.513Z,96.70
2017-10-18T21:35:58.900Z,97.00
2017-10-18T21:38:28.131Z,96.60
2017-10-18T21:40:56.545Z,96.50
2017-10-18T21:43:25.323Z,96.60
2017-10-18T21:45:53.875Z,96.60
2017-10-18T21:48:22.248Z,96.50
2017-10-18T21:50:50.669Z,96.30
2017-10-18T21:53:19.090Z,96.80
2017-10-18T21:55:48.256Z,96.30
2017-10-18T21:58:16.640Z,96.30
2017-10-18T22:00:45.399Z,96.40
2017-10-18T22:03:13.787Z,96.50
2017-10-18T22:05:42.176Z,96.40
2017-10-18T22:08:10.583Z,96.60
2017-10-18T22:10:39.731Z,97.20
2017-10-18T22:13:08.438Z,97.20
2017-10-18T22:15:36.815Z,97.40
2017-10-18T22:18:05.182Z,97.40
2017-10-18T22:20:33.599Z,97.20
2017-10-18T22:23:02.739Z,96.50
2017-10-18T22:25:31.175Z,96.40
2017-10-18T22:28:00.319Z,96.60
2017-10-18T22:30:28.700Z,96.60
2017-10-18T22:32:57.096Z,96.50
2017-10-18T22:35:25.484Z,96.60
2017-10-18T22:37:54.040Z,97.20
2017-10-18T22:40:22.417Z,98.40
2017-10-18T22:42:50.797Z,98.00
2017-10-18T22:45:19.207Z,97.40
2017-10-18T22:47:47.583Z,97.10
2017-10-18T22:50:16.137Z,97.10
2017-10-18T22:52:44.516Z,97.40
2017-10-18T22:55:12.898Z,96.70
2017-10-18T22:57:41.291Z,96.80
2017-10-18T23:00:09.662Z,97.10
2017-10-18T23:02:38.270Z,97.50
2017-10-18T23:05:06.647Z,97.60
2017-10-18T23:07:35.020Z,97.60
2017-10-18T23:10:03.462Z,97.50
2017-10-18T23:12:31.835Z,97.90
2017-10-18T23:15:00.546Z,98.20
2017-10-18T23:17:28.947Z,98.00
2017-10-18T23:19:57.324Z,97.70
2017-10-18T23:22:25.732Z,98.00
2017-10-18T23:24:54.873Z,97.70
2017-10-18T23:27:23.382Z,97.70
2017-10-18T23:29:51.763Z,98.30
2017-10-18T23:32:20.126Z,98.90
2017-10-18T23:34:48.520Z,98.80
2017-10-18T23:37:16.899Z,98.80
2017-10-18T23:39:45.619Z,98.70
2017-10-18T23:42:13.996Z,98.50
2017-10-18T23:44:42.399Z,98.30
2017-10-18T23:47:10.807Z,98.10
2017-10-18T23:49:39.186Z,97.70
2017-10-18T23:52:07.616Z,97.80
2017-10-18T23:54:35.989Z,98.00
2017-10-18T23:57:04.367Z,97.70
2017-10-18T23:59:32.775Z,97.30
